Timeline UpdatesTrip UpdatesNews PostsPvt PostsTravel TipsAdmin PostsConv PostsFollowed PostsChat RequestsBlog PostsPNR Posts

Disclaimer
Search
 
 
Sun Apr 20, 2014 20:03:43 ISTHomeTrainsΣChainsAtlasPNRForumGalleryNewsFAQTripsMembersLoginFeedback
No Recent News for this Train
Other Trains in the News **new
Latest...
Partially Cancelled between Jangipur Road-Azimganj- on 25/1/14 #973207
Fri Jan 24, 2014 (12:54AM)
⇐ Return Journey: Train# 73151

73152/Jangipur Road-Sealdah DEMU

Jan 24 2014 (12:53AM)
Change Departure Station:
Change Arrival Station:
Post a Train Travel TipPost a Train Travel Tip **new
Post a Comment/Question/Picture/VideoPost a Comment/Question/Picture/Video
Inaugural Run
Tue Feb 21, 2012
Pantry/Catering
✕ NO Pantry Car
✕ NO Catering
RSA - Rake Sharing
Rake/Coach Composition
Loco
News    PNR    Forum    Time-Table    Availability    Fare Chart    Map    Arr/Dep History    Trips    Gallery    ΣChains    X/O    Timeline    
Travel Time: 0h 19m    2 halts    Distance: 20 km    Avg Speed: 63 km/hr
Type: DEMU
Zone: ER/Eastern
Departs @ 13:15 (Avg 9m late)
Platform# ???
 MTWTFS
Jangipur Road/JRLE 
Arrives @ 13:34 (Avg 4m late)
Platform# ???
 MTWTFS
Noapara Mahisha/NWMS 

2 halts. 2 intermediate Stations between Jangipur Road and Noapara Mahisha

Show ALL intermediate Stations  Show Old Time-Table

#CodeStation NameX/OArrivesAvgDepartsAvgHaltPFDay#KmSpeedElevZoneAddress
1JRLE»Jangipur Road (2)»  -13:15+9--10.08330mERRaghunathganj, West Bengal
2GALEGankar  13:20+1113:21+111m--16.97131mERGankar, West Bengal
3MGLEManigram  13:28+1213:29+121m--115.25337mERLalgola, West Bengal
4NWMS•Noapara Mahisha•  13:34+413:35+41m--119.67033mERSagardighi Railway Station, West Bengal
5MPLEMahipal  13:38-13:39-1m--123.15026mERLalgola, West Bengal
6MPLRMahipal Road  13:41+1213:42+131m--124.86029mERLalgola, West Bengal
7ACLEAzimganj City (1)  13:51+1213:52+121m1133.7725mERPolice Station Rd, West Bengal
8AZAzimganj Junction (4)  14:03+1314:05+162m--135.15825mERPolice Station Rd, West Bengal
9LCAELalbagh Court Road  14:12+1814:13+191m--141.83323mERLalbagh Court Road, West Bengal
10NLSFNiyalish ParaX  14:19+1914:20+191m--145.09421mERNational Highway 34, West Bengal
11KGLEKhagraghat Road (2)  14:23+1914:24+211m--149.77322mERKhagraghat, West Bengal
12KNSNKarna Subarna  14:33+2414:34+261m--160.78027mERKhagraghat - Chowrigacha, West Bengal
13KTLRKanthaliya RoadX  14:39+2214:40+221m--167.41219mERKhagraghat - Chowrigacha, West Bengal
14CWLEChowrigacha (2)  14:53+2214:54+251m--169.96519mERChowrigacha, West Bengal
15BZLEBazarsau (2)  15:01+3115:02+311m--177.52821mERBazarsau, West Bengal
16TYAETenya (1)  15:17+2915:18+301m1184.44219mERTenya, West Bengal
17MHTRMalihati Talibpur Road  15:24+3015:25+301m--188.74723mERMalihati Talibpur Road, West Bengal
18SALESalar (2)  15:28+3015:29+301m--191.04626mERSalar, West Bengal
19JHBNJhamatpur Baharan  15:34+3015:35+301m--194.84426mERGoai, West Bengal
20GGLEGangatikuri (2)  15:39+3015:40+331m--197.82119mERState Highway 6, West Bengal
21KWAEKatwa Junction (5)  16:10+2216:15+265m--1108.16821mERDist - Bardhaman, West Bengal
22DHAEDainhat (4)  16:21+2916:22+311m--1114.94619mERDaihaat Rd, West Bengal
23AGAEAgradwip (2)X  16:30+3316:31+351m--1121.13718mERDist - Bardhaman, West Bengal
24PTAEPatuli (2)  16:39+3416:40+371m--1126.07518mERDist - bardhaman, West Bengal
25BQYBelerhat  16:44+3916:45+391m--1131.05519mERJajneswarpur, West Bengal
26LKXLakshmipur (2)  16:48+3916:49+421m--1133.74114mERDist - burdhaman, West Bengal
27PSAEPurbasthali (2)  16:58+4116:59+421m--1139.92319mERDist - Bardhaman, West Bengal
28BFZBhandartikuri  17:05+4117:06+411m--1142.25421mERDist - Bardhaman, West Bengal
29NDAENabadwip Dham (3)  17:12+4217:14+422m--1147.68315mERDist - Nadia, West Bengal
30KLNTKalinagar (1)  17:17+4317:18+441m11151.8749mERDist - Nadia, West Bengal
31SMAESamudra Garh  17:21+4617:22+471m--1155.44016mERDist - Bardhaman, West Bengal
32DTAEDhatrigram  17:32+4617:33+461m--1162.26916mERDhatrigram, West Bengal
33BGRABaghnapara (2)  17:37+4717:38+471m--1166.88216mERKalna-Memari Rd, West Bengal
34ABKAAmbika Kalna (4)  17:41+5117:42+511m--1170.98512mERKalna, West Bengal
35GPAEGuptipara  17:47+5217:48+521m--1177.96314mERGuptipara Railway Station, West Bengal
36BHLABehulaX  17:50+5217:51+521m--1180.05916mERDist - Hooghly, West Bengal
37SOAESomra Bazar (2)  17:56+5217:57+521m--1184.92913mERState Highway 6, West Bengal
38BGAEBalagarh  18:03+5218:04+521m--1187.84413mERBalagarh, West Bengal
39JITJirat (3)  18:07+5218:08+521m--1190.012617mERdist - hooghly, West Bengal
40KMAEKhamargachhi  18:11+5518:12+551m--1196.35914mERKhamargachi, West Bengal
41DMLEDumurdaha  18:14+5518:15+551m--1198.29815mERDumurdahadham, West Bengal
42KJUKuntighat  18:17+5718:18+571m--1201.56717mERKuntighat Railway Station, West Bengal
43TBAETribeni  18:21+5718:22+571m--1204.97416mERTribeni, West Bengal
44BSAEBansh BariaX  18:25+1:0018:26+1:001m--1208.51013mERBansberia, West Bengal
45BDCBandel Junction (7)X  18:52+4118:53+441m--1213.02114mERdist - HOOGHLY, West Bengal
46NHNaihati Junction (5)  19:17+4519:19+452m--1221.45815mERdist - North 24 paraganas - 743165, West Bengal
47BPBarrackpore (5)  19:35+4919:36+501m--1236.74512mERDist - 24 paraganas (N), West Bengal
48DDJDum Dum Junction (5)X  19:57+4419:58+441m--1252.41810mERKolkata - 700028, West Bengal
49SDAHKolkata Sealdah (20)  20:20+46-71259.0-8mERPh : 033-23503535 (For North: APC Roy Road) Kolkata 700014, West Bengal
Scroll to Top
Scroll to Bottom